Time;durP1;ratioP1;P1;durP2;ratioP2;P2;SDS_P1;SDS_P2;PMS_P1;PMS_P2;Temp;Humidity;BMP_temperature;BMP_pressure;BME280_temperature;BME280_humidity;BME280_pressure;Samples;Min_cycle;Max_cycle;Signal;HPM_P1;HPM_P2
2023/08/25 00:01:34;;;;;;;2.80;2.60;;;25.20;76.60;;;;;;5039683;28;44711;-78
2023/08/25 00:04:03;;;;;;;2.50;2.40;;;25.20;76.60;;;;;;5058263;28;43442;-78
2023/08/25 00:06:32;;;;;;;2.67;2.60;;;25.20;76.70;;;;;;5063755;28;43510;-77
2023/08/25 00:09:00;;;;;;;2.58;2.30;;;25.10;76.80;;;;;;5053367;28;45419;-77
2023/08/25 00:11:28;;;;;;;2.67;2.55;;;25.10;77.20;;;;;;5052883;28;43484;-77
2023/08/25 00:13:56;;;;;;;2.80;2.70;;;25.10;77.20;;;;;;5056478;28;43408;-77
2023/08/25 00:16:23;;;;;;;2.75;2.55;;;25.00;77.10;;;;;;5041304;28;43587;-76
2023/08/25 00:18:51;;;;;;;2.55;2.45;;;25.00;77.10;;;;;;5060470;28;43615;-77
2023/08/25 00:21:21;;;;;;;2.67;2.58;;;25.00;77.40;;;;;;5043904;28;44437;-78
2023/08/25 00:23:49;;;;;;;2.53;2.45;;;25.00;77.40;;;;;;5046181;28;43508;-76
2023/08/25 00:26:17;;;;;;;2.30;2.30;;;25.00;77.30;;;;;;5038922;28;43608;-77
2023/08/25 00:28:45;;;;;;;2.70;2.60;;;25.00;77.10;;;;;;5061512;28;43924;-76
2023/08/25 00:31:14;;;;;;;2.55;2.45;;;25.00;77.60;;;;;;5062678;28;45019;-77
2023/08/25 00:33:49;;;;;;;2.45;2.45;;;25.00;77.40;;;;;;5041261;28;43513;-77
2023/08/25 00:36:17;;;;;;;2.75;2.60;;;25.10;76.90;;;;;;5058381;28;43554;-78
2023/08/25 00:38:46;;;;;;;2.83;2.72;;;25.20;76.30;;;;;;5036482;28;45735;-78
2023/08/25 00:41:14;;;;;;;2.75;2.70;;;25.30;76.00;;;;;;5038201;28;45143;-77
2023/08/25 00:43:42;;;;;;;2.42;2.42;;;25.30;75.80;;;;;;5036553;28;43400;-76
2023/08/25 00:46:11;;;;;;;2.70;2.70;;;25.30;75.90;;;;;;5062268;28;43365;-77
2023/08/25 00:48:39;;;;;;;2.60;2.60;;;25.30;76.30;;;;;;5040814;28;46264;-77
2023/08/25 00:51:07;;;;;;;2.72;2.63;;;25.20;76.30;;;;;;5039508;28;45052;-77
2023/08/25 00:53:35;;;;;;;2.45;2.45;;;25.20;76.50;;;;;;5036582;28;44773;-78
2023/08/25 00:56:05;;;;;;;2.47;2.38;;;25.20;76.60;;;;;;5056892;28;45217;-77
2023/08/25 00:58:33;;;;;;;2.67;2.47;;;25.10;76.80;;;;;;5037412;28;45650;-76
2023/08/25 01:01:01;;;;;;;2.40;2.40;;;25.10;76.90;;;;;;5042004;28;44990;-77
2023/08/25 01:03:29;;;;;;;2.65;2.65;;;25.10;76.90;;;;;;5071759;22;43652;-71
2023/08/25 01:05:58;;;;;;;2.50;2.40;;;25.00;76.80;;;;;;5123015;27;43414;-69
2023/08/25 01:08:26;;;;;;;2.50;2.50;;;25.00;76.80;;;;;;5123528;27;43692;-69
2023/08/25 01:10:56;;;;;;;2.63;2.53;;;25.00;77.00;;;;;;5111278;27;44705;-70
2023/08/25 01:13:30;;;;;;;2.85;2.75;;;25.00;76.60;;;;;;5128000;27;43326;-70
2023/08/25 01:16:00;;;;;;;2.67;2.67;;;25.10;76.20;;;;;;5109065;27;43420;-69
2023/08/25 01:18:29;;;;;;;2.83;2.70;;;25.30;75.80;;;;;;5125874;27;43931;-68
2023/08/25 01:20:57;;;;;;;2.70;2.50;;;25.30;75.60;;;;;;5129087;27;43627;-69
2023/08/25 01:23:31;;;;;;;2.33;2.33;;;25.30;75.70;;;;;;5110033;27;43420;-69
2023/08/25 01:26:00;;;;;;;2.85;2.70;;;25.20;75.80;;;;;;5129947;27;43489;-68
2023/08/25 01:28:29;;;;;;;2.70;2.60;;;25.20;76.10;;;;;;5127322;27;43627;-68
2023/08/25 01:30:59;;;;;;;2.75;2.65;;;25.20;76.20;;;;;;5126104;27;43310;-69
2023/08/25 01:33:28;;;;;;;3.00;2.80;;;25.10;76.40;;;;;;5110804;27;43379;-69
2023/08/25 01:36:03;;;;;;;2.90;2.80;;;25.10;76.30;;;;;;5126081;27;43421;-70
2023/08/25 01:38:33;;;;;;;4.43;2.80;;;25.00;76.70;;;;;;5109918;27;45399;-68
2023/08/25 01:41:05;;;;;;;2.47;2.47;;;25.00;76.90;;;;;;5124605;27;44044;-68
2023/08/25 01:43:35;;;;;;;2.78;2.70;;;25.00;76.90;;;;;;5109912;27;43435;-69
2023/08/25 01:46:03;;;;;;;3.20;2.85;;;25.00;76.70;;;;;;5129063;27;43413;-70
2023/08/25 01:48:33;;;;;;;2.78;2.67;;;24.90;76.90;;;;;;5124286;27;43719;-70
2023/08/25 01:51:00;;;;;;;2.65;2.55;;;24.90;77.00;;;;;;5121073;27;43355;-70
2023/08/25 01:53:30;;;;;;;2.80;2.72;;;24.90;77.00;;;;;;5126024;27;43433;-70
2023/08/25 01:55:58;;;;;;;2.50;2.50;;;24.90;76.80;;;;;;5125707;27;43593;-70
2023/08/25 01:58:28;;;;;;;2.78;2.67;;;24.90;77.00;;;;;;5128221;27;45932;-69
2023/08/25 02:00:57;;;;;;;2.83;2.72;;;24.90;77.20;;;;;;5109296;27;43392;-70
2023/08/25 02:03:25;;;;;;;2.65;2.60;;;25.00;76.80;;;;;;5114520;27;44576;-69
2023/08/25 02:05:53;;;;;;;2.60;2.50;;;25.10;76.20;;;;;;5108761;27;43538;-69
2023/08/25 02:08:21;;;;;;;2.55;2.53;;;25.20;75.80;;;;;;5121048;27;43701;-69
2023/08/25 02:10:49;;;;;;;2.58;2.38;;;25.30;75.50;;;;;;5089219;27;45170;-71
2023/08/25 02:13:17;;;;;;;2.90;2.80;;;25.40;75.40;;;;;;5087268;27;43397;-72
2023/08/25 02:15:46;;;;;;;2.80;2.60;;;25.30;75.40;;;;;;5103156;27;44702;-71
2023/08/25 02:18:14;;;;;;;2.50;2.50;;;25.30;75.80;;;;;;5104949;27;45527;-71
2023/08/25 02:20:42;;;;;;;2.60;2.50;;;25.20;75.90;;;;;;5087947;27;44729;-71
2023/08/25 02:23:13;;;;;;;2.80;2.60;;;25.20;76.00;;;;;;5099528;27;43477;-71
2023/08/25 02:25:42;;;;;;;3.10;2.90;;;25.10;76.10;;;;;;5078534;27;43519;-71
2023/08/25 02:28:10;;;;;;;2.67;2.58;;;25.10;76.20;;;;;;5098403;27;43618;-70
2023/08/25 02:30:38;;;;;;;2.50;2.40;;;25.00;76.60;;;;;;5109880;27;44772;-70
2023/08/25 02:33:07;;;;;;;2.47;2.47;;;25.00;76.70;;;;;;5107827;27;43423;-70
2023/08/25 02:35:35;;;;;;;2.47;2.47;;;25.00;76.70;;;;;;5123850;27;43495;-70
2023/08/25 02:38:05;;;;;;;2.88;2.42;;;25.00;76.50;;;;;;5129273;27;43591;-70
2023/08/25 02:40:33;;;;;;;2.72;2.63;;;24.90;77.00;;;;;;5129970;27;43530;-70
2023/08/25 02:43:02;;;;;;;2.50;2.40;;;24.90;76.90;;;;;;5129471;27;43434;-70
2023/08/25 02:45:30;;;;;;;2.80;2.70;;;25.00;76.50;;;;;;5114267;27;43512;-70
2023/08/25 02:47:58;;;;;;;2.40;2.40;;;25.20;76.20;;;;;;5128057;27;43702;-70
2023/08/25 02:50:27;;;;;;;2.28;2.28;;;25.20;75.80;;;;;;5110158;27;44674;-70
2023/08/25 02:52:56;;;;;;;2.50;2.50;;;25.30;75.70;;;;;;5115029;27;43390;-70
2023/08/25 02:55:24;;;;;;;2.42;2.33;;;25.20;75.80;;;;;;5111192;27;43527;-71
2023/08/25 02:57:52;;;;;;;2.47;2.47;;;25.20;76.20;;;;;;5110163;27;46414;-70
2023/08/25 03:00:23;;;;;;;2.80;2.70;;;25.10;76.20;;;;;;5127202;27;43462;-71
2023/08/25 03:02:51;;;;;;;2.38;2.38;;;25.10;76.30;;;;;;5122730;27;44213;-70
2023/08/25 03:05:19;;;;;;;2.25;2.25;;;25.00;76.40;;;;;;5127036;27;43431;-71
2023/08/25 03:07:51;;;;;;;2.75;2.65;;;25.00;76.50;;;;;;5124066;27;43924;-70
2023/08/25 03:10:20;;;;;;;2.50;2.50;;;25.00;76.80;;;;;;5132395;27;43477;-71
2023/08/25 03:12:48;;;;;;;2.42;2.33;;;25.00;76.90;;;;;;5132679;27;43548;-71
2023/08/25 03:15:19;;;;;;;2.30;2.30;;;24.90;76.80;;;;;;5116799;27;43507;-70
2023/08/25 03:17:49;;;;;;;2.60;2.50;;;24.90;76.60;;;;;;5126977;27;45566;-71
2023/08/25 03:20:20;;;;;;;2.60;2.50;;;24.90;77.10;;;;;;5113468;27;44663;-70
2023/08/25 03:22:54;;;;;;;2.35;2.35;;;24.90;77.00;;;;;;5109179;27;43519;-69
2023/08/25 03:25:22;;;;;;;2.20;2.20;;;25.00;76.70;;;;;;5120297;27;43362;-69
2023/08/25 03:27:50;;;;;;;2.50;2.40;;;25.10;76.30;;;;;;5115925;27;45964;-70
2023/08/25 03:30:19;;;;;;;2.38;2.38;;;25.20;76.10;;;;;;5123156;27;43386;-69
2023/08/25 03:32:47;;;;;;;2.25;2.25;;;25.20;76.00;;;;;;5125972;27;43408;-70
2023/08/25 03:35:15;;;;;;;2.30;2.30;;;25.10;76.10;;;;;;5105770;27;43471;-70
2023/08/25 03:37:43;;;;;;;2.58;2.40;;;25.10;76.40;;;;;;5125993;27;43838;-70
2023/08/25 03:40:13;;;;;;;2.22;2.22;;;25.00;76.60;;;;;;5127642;27;43341;-70
2023/08/25 03:42:41;;;;;;;2.35;2.35;;;25.00;76.60;;;;;;5123365;27;43471;-69
2023/08/25 03:45:10;;;;;;;2.10;2.10;;;25.00;76.50;;;;;;5112201;27;43486;-70
2023/08/25 03:47:38;;;;;;;2.53;2.47;;;25.00;77.00;;;;;;5111234;27;45918;-69
2023/08/25 03:50:07;;;;;;;2.47;2.30;;;24.90;76.90;;;;;;5112275;27;44426;-70
2023/08/25 03:52:36;;;;;;;3.00;2.40;;;25.00;76.70;;;;;;5114027;27;43575;-69
2023/08/25 03:55:04;;;;;;;2.40;2.40;;;25.10;76.30;;;;;;5113374;27;43672;-70
2023/08/25 03:57:34;;;;;;;2.30;2.30;;;25.10;76.40;;;;;;5113321;27;45725;-69
2023/08/25 04:00:03;;;;;;;2.42;2.33;;;25.00;76.40;;;;;;5122678;27;43662;-70
2023/08/25 04:02:39;;;;;;;2.60;2.50;;;25.00;76.70;;;;;;5125021;27;43789;-69
2023/08/25 04:05:08;;;;;;;2.75;2.55;;;25.00;76.40;;;;;;5122461;27;43456;-69
2023/08/25 04:07:37;;;;;;;2.50;2.40;;;25.00;76.30;;;;;;5128227;27;45602;-69
2023/08/25 04:10:07;;;;;;;2.10;2.10;;;25.00;76.30;;;;;;5128456;27;43396;-70
2023/08/25 04:12:37;;;;;;;2.70;2.60;;;25.00;76.70;;;;;;5122105;27;43407;-70
2023/08/25 04:15:06;;;;;;;2.55;2.47;;;24.90;76.60;;;;;;5104748;27;43542;-69
2023/08/25 04:17:34;;;;;;;2.50;2.40;;;25.00;76.30;;;;;;5112090;27;43819;-69
2023/08/25 04:20:03;;;;;;;2.45;2.40;;;25.10;76.20;;;;;;5124049;27;43458;-70
2023/08/25 04:22:31;;;;;;;2.40;2.30;;;25.10;76.20;;;;;;5112272;27;43490;-69
2023/08/25 04:25:00;;;;;;;2.60;2.50;;;25.00;76.20;;;;;;5110241;27;43610;-70
2023/08/25 04:27:28;;;;;;;2.63;2.42;;;25.00;76.10;;;;;;5105278;28;45754;-70
2023/08/25 04:29:58;;;;;;;2.50;2.47;;;25.00;75.70;;;;;;5113632;27;44519;-70
2023/08/25 04:32:26;;;;;;;2.67;2.58;;;25.00;75.80;;;;;;5115638;27;43496;-71
2023/08/25 04:34:54;;;;;;;2.70;2.60;;;25.00;75.90;;;;;;5113459;27;43465;-71
2023/08/25 04:37:23;;;;;;;2.72;2.53;;;24.90;76.00;;;;;;5115378;27;45976;-71
2023/08/25 04:39:52;;;;;;;2.95;2.83;;;24.90;75.90;;;;;;5112987;27;44733;-70
2023/08/25 04:42:20;;;;;;;2.42;2.33;;;24.90;75.90;;;;;;5112977;27;43442;-71
2023/08/25 04:44:50;;;;;;;3.05;2.80;;;24.90;76.10;;;;;;5116380;27;43612;-70
2023/08/25 04:47:19;;;;;;;3.28;3.10;;;24.80;76.00;;;;;;5130355;27;46275;-71
2023/08/25 04:49:49;;;;;;;3.00;2.90;;;24.80;76.00;;;;;;5113583;27;45077;-70
2023/08/25 04:52:17;;;;;;;3.28;2.97;;;24.90;76.00;;;;;;5129633;27;43350;-71
2023/08/25 04:54:48;;;;;;;2.80;2.72;;;25.00;75.60;;;;;;5128075;27;43550;-70
2023/08/25 04:57:16;;;;;;;2.90;2.70;;;25.10;75.30;;;;;;5112195;27;45472;-69
2023/08/25 04:59:44;;;;;;;2.70;2.67;;;25.20;75.10;;;;;;5130618;27;44748;-69
2023/08/25 05:02:14;;;;;;;2.92;2.50;;;25.20;75.20;;;;;;5112441;27;43493;-69
2023/08/25 05:04:44;;;;;;;2.90;2.80;;;25.10;75.30;;;;;;5116791;27;43545;-70
2023/08/25 05:07:13;;;;;;;2.72;2.60;;;25.00;75.70;;;;;;5113332;27;45390;-69
2023/08/25 05:09:43;;;;;;;3.00;2.88;;;25.00;75.90;;;;;;5115091;27;44569;-70
2023/08/25 05:12:12;;;;;;;2.60;2.50;;;25.00;76.00;;;;;;5111943;27;43479;-70
2023/08/25 05:14:44;;;;;;;2.83;2.63;;;25.00;75.80;;;;;;5112954;27;44111;-69
2023/08/25 05:17:12;;;;;;;2.80;2.70;;;24.90;76.40;;;;;;5113666;27;44953;-69
2023/08/25 05:19:41;;;;;;;2.70;2.60;;;24.90;76.60;;;;;;5107393;27;43439;-70
2023/08/25 05:22:10;;;;;;;2.40;2.30;;;24.90;76.50;;;;;;5127514;27;43455;-70
2023/08/25 05:24:39;;;;;;;2.90;2.80;;;24.80;76.20;;;;;;5114727;27;43562;-71
2023/08/25 05:27:07;;;;;;;2.55;2.42;;;24.80;76.70;;;;;;5129214;27;43879;-71
2023/08/25 05:29:35;;;;;;;2.55;2.45;;;24.80;76.70;;;;;;5113182;27;43775;-71
2023/08/25 05:32:13;;;;;;;2.70;2.60;;;24.90;76.40;;;;;;5115922;27;43499;-70
2023/08/25 05:35:03;;;;;;;2.78;2.47;;;25.00;76.10;;;;;;5121701;27;43510;-70
2023/08/25 05:37:34;;;;;;;2.47;2.47;;;25.10;75.60;;;;;;5115143;27;45668;-70
2023/08/25 05:40:05;;;;;;;2.30;2.30;;;25.20;75.60;;;;;;5106206;27;43513;-69
2023/08/25 05:42:35;;;;;;;2.55;2.38;;;25.10;75.60;;;;;;5097507;27;43975;-69
2023/08/25 05:45:04;;;;;;;2.90;2.38;;;25.00;75.90;;;;;;5099919;27;44445;-70
2023/08/25 05:47:33;;;;;;;2.28;2.28;;;25.00;76.00;;;;;;5105094;27;43611;-69
2023/08/25 05:50:02;;;;;;;2.20;2.20;;;25.00;76.10;;;;;;5087434;27;43764;-69
2023/08/25 05:52:30;;;;;;;2.50;2.30;;;25.00;76.10;;;;;;5101593;27;43383;-69
2023/08/25 05:54:59;;;;;;;2.10;2.10;;;24.90;76.50;;;;;;5086069;27;43476;-70
2023/08/25 05:57:27;;;;;;;2.55;2.45;;;24.90;76.70;;;;;;5097815;27;45073;-69
2023/08/25 05:59:55;;;;;;;2.50;2.40;;;24.80;76.70;;;;;;5099655;27;43439;-69
2023/08/25 06:02:23;;;;;;;2.55;2.45;;;24.80;76.40;;;;;;5100642;27;43475;-69
2023/08/25 06:04:51;;;;;;;2.30;2.30;;;24.80;77.50;;;;;;5101587;27;43544;-69
2023/08/25 06:07:19;;;;;;;2.40;2.30;;;24.80;77.00;;;;;;5094965;27;43957;-69
2023/08/25 06:09:47;;;;;;;2.22;2.22;;;24.80;76.80;;;;;;5102662;27;43512;-69
2023/08/25 06:12:17;;;;;;;2.13;2.13;;;24.90;76.40;;;;;;5100524;27;44596;-69
2023/08/25 06:14:45;;;;;;;2.35;2.35;;;25.00;76.40;;;;;;5091232;27;43940;-70
2023/08/25 06:17:13;;;;;;;2.40;2.30;;;25.00;76.30;;;;;;5102293;27;43877;-69
2023/08/25 06:19:43;;;;;;;2.13;2.13;;;24.90;76.50;;;;;;5096008;27;43992;-69
2023/08/25 06:22:11;;;;;;;2.40;2.40;;;24.90;76.50;;;;;;5096563;27;43539;-69
2023/08/25 06:24:39;;;;;;;2.55;2.45;;;24.90;76.50;;;;;;5089217;27;43666;-70
2023/08/25 06:27:07;;;;;;;2.67;2.58;;;24.90;76.50;;;;;;5089409;27;45364;-69
2023/08/25 06:29:36;;;;;;;2.33;2.30;;;24.90;76.40;;;;;;5103127;27;43536;-69
2023/08/25 06:32:05;;;;;;;2.45;2.45;;;24.80;76.80;;;;;;5089545;27;43388;-70
2023/08/25 06:34:33;;;;;;;2.20;2.20;;;24.90;76.70;;;;;;5101201;27;43683;-69
2023/08/25 06:37:01;;;;;;;2.33;2.33;;;24.90;76.60;;;;;;5085890;27;45926;-70
2023/08/25 06:39:29;;;;;;;2.50;2.40;;;24.90;76.50;;;;;;5105371;27;43459;-69
2023/08/25 06:41:57;;;;;;;2.40;2.30;;;24.90;76.40;;;;;;5103477;27;43542;-70
2023/08/25 06:44:27;;;;;;;2.70;2.60;;;24.90;76.90;;;;;;5100891;27;43962;-69
2023/08/25 06:46:57;;;;;;;2.40;2.30;;;24.80;76.70;;;;;;5099814;27;43611;-69
2023/08/25 06:49:27;;;;;;;2.05;2.05;;;24.90;76.80;;;;;;5107118;27;43591;-69
2023/08/25 06:51:55;;;;;;;2.15;2.15;;;24.80;76.50;;;;;;5099965;27;43977;-69
2023/08/25 06:54:24;;;;;;;2.10;2.10;;;24.80;76.90;;;;;;5101128;27;43517;-69
2023/08/25 06:56:52;;;;;;;2.60;2.50;;;24.80;77.20;;;;;;5097506;27;43615;-70
2023/08/25 06:59:19;;;;;;;2.13;2.13;;;24.80;77.20;;;;;;5103114;27;43883;-69
2023/08/25 07:01:48;;;;;;;2.30;2.20;;;24.80;76.90;;;;;;5102815;27;43383;-69
2023/08/25 07:04:18;;;;;;;2.30;2.30;;;24.80;76.80;;;;;;5106534;27;43498;-70
2023/08/25 07:06:46;;;;;;;2.15;2.15;;;24.70;77.30;;;;;;5080757;27;45751;-69
2023/08/25 07:09:14;;;;;;;2.33;2.33;;;24.70;77.20;;;;;;5098167;27;43504;-69
2023/08/25 07:11:43;;;;;;;2.38;2.38;;;24.80;76.90;;;;;;5103278;27;43447;-69
2023/08/25 07:14:11;;;;;;;3.20;2.20;;;24.90;76.60;;;;;;5102292;27;43575;-69
2023/08/25 07:16:38;;;;;;;2.20;2.20;;;25.00;76.20;;;;;;5102649;27;44207;-69
2023/08/25 07:19:06;;;;;;;2.08;2.05;;;25.10;76.10;;;;;;5104451;27;43536;-69
2023/08/25 07:21:36;;;;;;;2.25;2.17;;;25.10;76.20;;;;;;5101963;27;43476;-68
2023/08/25 07:24:05;;;;;;;2.55;2.45;;;25.00;76.40;;;;;;5102920;27;43597;-69
2023/08/25 07:26:33;;;;;;;2.33;2.30;;;24.90;76.50;;;;;;5099240;27;43965;-69
2023/08/25 07:29:01;;;;;;;2.05;2.05;;;24.90;76.60;;;;;;5101885;27;43972;-69
2023/08/25 07:31:29;;;;;;;2.30;2.30;;;24.80;76.40;;;;;;5089006;27;43952;-68
2023/08/25 07:33:58;;;;;;;2.88;2.78;;;24.80;76.60;;;;;;5107272;27;43414;-69
2023/08/25 07:36:26;;;;;;;2.70;2.50;;;24.80;76.90;;;;;;5108836;27;43608;-70
2023/08/25 07:38:56;;;;;;;2.30;2.20;;;24.80;76.70;;;;;;5091294;27;44711;-70
2023/08/25 07:41:24;;;;;;;2.42;2.33;;;24.70;76.90;;;;;;5105015;27;43427;-70
2023/08/25 07:43:52;;;;;;;2.28;2.22;;;24.70;77.40;;;;;;5108094;27;43328;-70
2023/08/25 07:46:20;;;;;;;2.85;2.63;;;24.70;77.30;;;;;;5108024;27;43621;-70
2023/08/25 07:48:50;;;;;;;2.45;2.35;;;24.70;77.20;;;;;;5105798;27;43544;-69
2023/08/25 07:51:18;;;;;;;2.22;2.05;;;24.80;77.20;;;;;;5108722;27;43383;-69
2023/08/25 07:54:07;;;;;;;3.25;2.30;;;24.90;76.70;;;;;;5106061;27;43490;-70
2023/08/25 07:56:35;;;;;;;2.38;2.38;;;25.00;76.40;;;;;;5104884;27;43615;-69
2023/08/25 07:59:05;;;;;;;2.13;2.13;;;25.00;76.30;;;;;;5109824;27;44034;-70
2023/08/25 08:01:33;;;;;;;2.25;1.92;;;25.00;76.30;;;;;;5104512;27;43943;-70
2023/08/25 08:04:01;;;;;;;2.10;2.10;;;24.90;76.50;;;;;;5101565;27;43427;-69
2023/08/25 08:06:31;;;;;;;2.35;2.25;;;24.80;76.60;;;;;;5100036;27;44155;-69
2023/08/25 08:09:00;;;;;;;2.47;1.83;;;24.80;76.70;;;;;;5096465;27;44025;-71
2023/08/25 08:11:32;;;;;;;2.08;2.00;;;24.80;76.60;;;;;;5100533;27;43550;-71
2023/08/25 08:14:00;;;;;;;1.88;1.88;;;24.80;76.70;;;;;;5103855;27;43985;-71
2023/08/25 08:16:28;;;;;;;2.30;2.20;;;24.70;77.20;;;;;;5103492;27;43615;-71
2023/08/25 08:18:56;;;;;;;2.22;2.13;;;24.70;77.30;;;;;;5102162;27;43951;-69
2023/08/25 08:21:24;;;;;;;2.00;2.00;;;24.70;77.10;;;;;;5093074;27;44646;-70
2023/08/25 08:23:52;;;;;;;2.30;2.20;;;24.70;77.00;;;;;;5102958;27;45070;-69
2023/08/25 08:26:21;;;;;;;1.90;1.90;;;24.70;77.50;;;;;;5099822;27;43620;-69
2023/08/25 08:28:51;;;;;;;2.30;2.08;;;24.70;77.60;;;;;;5102582;27;43520;-69
2023/08/25 08:31:20;;;;;;;2.45;2.35;;;24.80;77.40;;;;;;5104999;27;43496;-70
2023/08/25 08:33:48;;;;;;;5.75;2.30;;;24.80;77.20;;;;;;5101468;27;44121;-69
2023/08/25 08:36:16;;;;;;;7.00;2.50;;;24.90;76.60;;;;;;5102637;27;43619;-68
2023/08/25 08:38:44;;;;;;;4.22;2.60;;;25.00;76.70;;;;;;5101682;27;43360;-69
2023/08/25 08:41:12;;;;;;;6.40;2.72;;;25.00;76.50;;;;;;5103759;27;43421;-69
2023/08/25 08:43:42;;;;;;;6.00;2.83;;;24.90;76.40;;;;;;5087554;27;43444;-68
2023/08/25 08:46:12;;;;;;;5.80;2.97;;;24.80;76.30;;;;;;5098365;27;44257;-68
2023/08/25 08:48:40;;;;;;;13.75;3.08;;;24.80;76.40;;;;;;5104063;27;43801;-68
2023/08/25 08:51:08;;;;;;;6.93;2.70;;;24.80;76.60;;;;;;5102474;27;43420;-68
2023/08/25 08:53:36;;;;;;;5.45;2.28;;;24.70;76.70;;;;;;5106495;27;44304;-68
2023/08/25 08:56:04;;;;;;;7.90;2.80;;;24.70;76.90;;;;;;5103798;27;44608;-68
2023/08/25 08:58:32;;;;;;;23.63;3.70;;;24.60;76.90;;;;;;5100579;27;43485;-68
2023/08/25 09:01:00;;;;;;;7.22;2.88;;;24.60;77.00;;;;;;5105494;27;43411;-67
2023/08/25 09:03:33;;;;;;;5.50;2.78;;;24.60;77.10;;;;;;5107338;27;45468;-68
2023/08/25 09:06:03;;;;;;;15.63;2.97;;;24.50;76.80;;;;;;5106119;27;43751;-67
2023/08/25 09:08:31;;;;;;;6.03;2.80;;;24.60;77.10;;;;;;5104787;27;43419;-68
2023/08/25 09:11:03;;;;;;;3.08;2.75;;;24.60;77.30;;;;;;5091007;27;43802;-67
2023/08/25 09:13:33;;;;;;;5.18;2.35;;;24.50;77.10;;;;;;5099808;27;44504;-67
2023/08/25 09:16:02;;;;;;;3.70;2.72;;;24.50;77.30;;;;;;5103073;27;43607;-67
2023/08/25 09:18:35;;;;;;;2.30;2.20;;;24.50;77.60;;;;;;5101206;27;43527;-71
2023/08/25 09:21:04;;;;;;;2.95;2.60;;;24.60;77.10;;;;;;5101758;27;43490;-70
2023/08/25 09:23:32;;;;;;;2.75;2.60;;;24.70;77.00;;;;;;5103571;27;43379;-72
2023/08/25 09:26:04;;;;;;;2.70;2.50;;;24.80;76.80;;;;;;5099394;27;43576;-70
2023/08/25 09:28:37;;;;;;;2.58;2.38;;;24.80;76.60;;;;;;5102624;27;43489;-68
2023/08/25 09:31:05;;;;;;;3.85;2.50;;;24.90;76.50;;;;;;5103780;27;43862;-68
2023/08/25 09:33:35;;;;;;;2.85;2.67;;;24.80;76.50;;;;;;5102764;27;43887;-69
2023/08/25 09:36:05;;;;;;;2.58;2.40;;;24.80;76.70;;;;;;5101377;27;44046;-69
2023/08/25 09:38:33;;;;;;;2.55;2.40;;;24.70;76.70;;;;;;5099723;27;43928;-68
2023/08/25 09:41:12;;;;;;;2.78;2.67;;;24.70;77.60;;;;;;5097690;27;43491;-69
2023/08/25 09:43:40;;;;;;;2.88;2.40;;;24.70;77.00;;;;;;5072221;27;44495;-69
2023/08/25 09:46:08;;;;;;;2.80;2.10;;;24.60;77.40;;;;;;5074720;27;45826;-68
2023/08/25 09:48:38;;;;;;;2.78;2.50;;;24.60;77.20;;;;;;5107720;27;43618;-68
2023/08/25 09:54:53;;;;;;;4.78;2.65;;;24.60;77.30;;;;;;5099975;27;43477;-68
2023/08/25 09:57:21;;;;;;;3.78;2.50;;;24.60;77.50;;;;;;5087355;27;45430;-68
2023/08/25 09:59:49;;;;;;;2.45;2.30;;;24.60;77.50;;;;;;5084747;27;46153;-68
2023/08/25 10:02:17;;;;;;;3.22;2.28;;;24.70;77.00;;;;;;5105002;27;43465;-68
2023/08/25 10:04:46;;;;;;;2.90;2.70;;;24.80;76.70;;;;;;5106529;27;43484;-68
2023/08/25 10:07:14;;;;;;;3.00;2.80;;;24.90;76.50;;;;;;5102245;27;43611;-68
2023/08/25 10:09:44;;;;;;;2.47;2.38;;;24.80;76.20;;;;;;5091466;27;44886;-68
2023/08/25 10:12:11;;;;;;;2.90;2.70;;;24.80;76.30;;;;;;5093412;27;43509;-68
2023/08/25 10:14:39;;;;;;;2.83;2.60;;;24.80;76.50;;;;;;5104822;27;43464;-68
2023/08/25 10:17:07;;;;;;;2.65;2.55;;;24.80;76.60;;;;;;5102900;27;43607;-69
2023/08/25 10:19:36;;;;;;;2.58;2.47;;;24.70;76.50;;;;;;5104039;27;44681;-68
2023/08/25 10:22:05;;;;;;;2.83;2.45;;;24.70;76.40;;;;;;5105738;27;43399;-70
2023/08/25 10:24:35;;;;;;;2.63;2.45;;;24.70;76.80;;;;;;5089019;27;44019;-70
2023/08/25 10:27:03;;;;;;;2.67;2.58;;;24.70;76.70;;;;;;5104194;27;43772;-70
2023/08/25 10:29:31;;;;;;;2.63;2.47;;;24.70;76.70;;;;;;5103678;27;43576;-72
2023/08/25 10:32:00;;;;;;;3.35;3.05;;;24.60;76.50;;;;;;5102556;27;43490;-72
2023/08/25 10:34:33;;;;;;;2.55;2.30;;;24.60;77.60;;;;;;5099377;27;43517;-71
2023/08/25 10:37:10;;;;;;;2.72;2.50;;;24.60;76.80;;;;;;5104670;27;43607;-70
2023/08/25 10:40:28;;;;;;;5.18;2.83;;;24.70;76.60;;;;;;5110045;27;43474;-69
2023/08/25 10:42:57;;;;;;;3.15;2.63;;;24.90;76.20;;;;;;5100096;27;44081;-69
2023/08/25 10:45:26;;;;;;;2.92;2.60;;;24.90;75.80;;;;;;5107347;27;44135;-69
2023/08/25 10:47:54;;;;;;;2.88;2.67;;;25.00;75.90;;;;;;5113571;22;43761;-73
2023/08/25 10:50:23;;;;;;;3.00;2.80;;;25.00;76.10;;;;;;5100831;27;44274;-71
2023/08/25 10:52:52;;;;;;;3.17;2.80;;;24.90;76.00;;;;;;5356791;22;44946;-68
2023/08/25 10:55:25;;;;;;;4.05;2.90;;;24.90;76.00;;;;;;5080539;27;44015;-68
2023/08/25 10:57:53;;;;;;;3.10;3.00;;;24.90;76.10;;;;;;5087503;27;44012;-67
2023/08/25 11:00:27;;;;;;;3.20;3.08;;;24.90;76.20;;;;;;5086176;27;44033;-68
2023/08/25 11:02:55;;;;;;;3.38;3.05;;;24.90;76.30;;;;;;5091563;27;43431;-68
2023/08/25 11:05:46;;;;;;;3.15;2.83;;;24.90;76.20;;;;;;5092684;27;43553;-67
2023/08/25 11:08:28;;;;;;;2.97;2.88;;;24.90;76.20;;;;;;5090841;27;43945;-67
2023/08/25 11:11:13;;;;;;;3.30;3.08;;;25.00;76.40;;;;;;5091461;27;43450;-67
2023/08/25 11:13:41;;;;;;;5.85;2.95;;;24.90;76.30;;;;;;5091996;27;44043;-67
2023/08/25 11:16:10;;;;;;;3.03;2.90;;;25.00;76.10;;;;;;5080066;27;43549;-67
2023/08/25 11:18:51;;;;;;;5.72;4.03;;;25.10;75.60;;;;;;5074026;28;45760;-73
2023/08/25 11:21:23;;;;;;;3.83;3.42;;;25.20;75.00;;;;;;5084816;27;43424;-69
2023/08/25 11:23:52;;;;;;;6.20;3.28;;;25.30;74.50;;;;;;5088772;27;43425;-68
2023/08/25 11:26:21;;;;;;;6.38;2.97;;;25.30;73.60;;;;;;5101964;27;44105;-70
2023/08/25 11:28:50;;;;;;;4.82;3.35;;;25.20;73.90;;;;;;5091167;27;43589;-69
2023/08/25 11:31:21;;;;;;;7.45;3.20;;;25.20;73.90;;;;;;5084245;27;43607;-69
2023/08/25 11:33:49;;;;;;;3.70;3.45;;;25.20;73.50;;;;;;5084744;27;44064;-70
2023/08/25 11:36:17;;;;;;;3.30;3.13;;;25.10;74.10;;;;;;5082413;27;44546;-69
2023/08/25 11:38:50;;;;;;;3.40;3.20;;;25.10;74.60;;;;;;5087047;27;43599;-70
2023/08/25 11:41:19;;;;;;;3.20;3.00;;;25.00;74.20;;;;;;5084790;27;44526;-69
2023/08/25 11:43:48;;;;;;;3.80;3.17;;;25.10;74.50;;;;;;5086251;27;43452;-69
2023/08/25 11:46:16;;;;;;;3.22;3.08;;;25.00;74.40;;;;;;5083787;27;43558;-68
2023/08/25 11:48:47;;;;;;;3.50;3.40;;;25.00;74.50;;;;;;5083811;27;43862;-70
2023/08/25 11:51:16;;;;;;;3.70;3.40;;;25.00;74.80;;;;;;5086126;27;43501;-69
2023/08/25 11:53:45;;;;;;;3.28;3.08;;;25.00;74.60;;;;;;5102580;27;43534;-69
2023/08/25 11:56:14;;;;;;;3.75;3.53;;;25.10;74.00;;;;;;5087661;27;43645;-69
2023/08/25 11:58:46;;;;;;;4.10;3.30;;;25.20;73.70;;;;;;5087342;27;45960;-70
2023/08/25 12:01:14;;;;;;;4.80;3.60;;;25.30;73.40;;;;;;5104437;27;43793;-70
2023/08/25 12:03:44;;;;;;;4.20;3.90;;;25.30;73.20;;;;;;5106295;27;43570;-71
2023/08/25 12:06:12;;;;;;;3.55;3.17;;;25.30;73.30;;;;;;5104940;27;43526;-72
2023/08/25 12:08:41;;;;;;;3.58;3.28;;;25.20;73.50;;;;;;5106136;27;43902;-72
2023/08/25 12:11:10;;;;;;;4.40;3.47;;;25.20;73.50;;;;;;5087040;27;44723;-71
2023/08/25 12:13:44;;;;;;;3.80;3.50;;;25.20;73.50;;;;;;5108566;27;43468;-69
2023/08/25 12:16:13;;;;;;;3.75;3.45;;;25.20;73.50;;;;;;5109296;27;44626;-69
2023/08/25 12:18:42;;;;;;;4.68;3.75;;;25.20;73.50;;;;;;5118854;27;43989;-69
2023/08/25 12:21:10;;;;;;;3.65;3.40;;;25.20;74.00;;;;;;5132054;27;43390;-69
2023/08/25 12:23:39;;;;;;;5.72;3.75;;;25.20;73.80;;;;;;5113823;27;43409;-69
2023/08/25 12:26:09;;;;;;;4.03;3.72;;;25.20;74.00;;;;;;5129680;27;43530;-69
2023/08/25 12:28:38;;;;;;;3.85;3.60;;;25.10;73.70;;;;;;5129727;27;45729;-70
2023/08/25 12:31:08;;;;;;;6.00;3.78;;;25.10;74.10;;;;;;5130026;27;43459;-70
2023/08/25 12:33:36;;;;;;;3.92;3.72;;;25.20;74.10;;;;;;5111824;27;43409;-68
2023/08/25 12:36:04;;;;;;;5.65;3.78;;;25.20;73.40;;;;;;5107167;27;43493;-70
2023/08/25 12:38:33;;;;;;;5.10;4.07;;;25.30;73.00;;;;;;5106177;27;43599;-69
2023/08/25 12:41:01;;;;;;;4.50;3.90;;;25.40;72.90;;;;;;5106949;27;43504;-68
2023/08/25 12:43:29;;;;;;;4.07;3.88;;;25.40;72.30;;;;;;5106026;27;43347;-68
2023/08/25 12:45:57;;;;;;;8.00;4.25;;;25.40;72.70;;;;;;5108698;27;44182;-68
2023/08/25 12:48:26;;;;;;;4.10;3.80;;;25.40;73.10;;;;;;5106285;27;43669;-69
2023/08/25 12:50:55;;;;;;;5.18;4.60;;;25.30;72.90;;;;;;5106867;27;43646;-69
2023/08/25 12:53:23;;;;;;;4.43;4.13;;;25.40;72.90;;;;;;5107035;27;43390;-69
2023/08/25 12:55:53;;;;;;;4.30;4.03;;;25.30;73.30;;;;;;5105360;27;43512;-69
2023/08/25 12:58:21;;;;;;;5.72;4.20;;;25.20;73.60;;;;;;5104504;27;44051;-69
2023/08/25 13:00:49;;;;;;;7.03;4.18;;;25.20;73.50;;;;;;5106735;27;43447;-68